sensor_id;sensor_type;location;lat;lon;timestamp;pressure;altitude;pressure_sealevel;temperature;humidity
6433;BME280;3249;42.690;23.260;2024-03-23T00:55:12;94262.16;;;2.08;100.00
6433;BME280;3249;42.690;23.260;2024-03-23T00:57:39;94259.53;;;2.24;100.00
6433;BME280;3249;42.690;23.260;2024-03-23T01:00:06;94250.59;;;2.36;100.00
6433;BME280;3249;42.690;23.260;2024-03-23T01:02:33;94259.41;;;2.48;100.00
6433;BME280;3249;42.690;23.260;2024-03-23T01:04:59;94261.28;;;2.54;100.00
6433;BME280;3249;42.690;23.260;2024-03-23T01:07:26;94253.34;;;2.57;100.00
6433;BME280;3249;42.690;23.260;2024-03-23T01:09:52;94259.75;;;2.45;100.00
6433;BME280;3249;42.690;23.260;2024-03-23T01:12:22;94255.00;;;2.42;100.00
6433;BME280;3249;42.690;23.260;2024-03-23T01:14:48;94251.34;;;2.14;100.00
6433;BME280;3249;42.690;23.260;2024-03-23T01:17:15;94237.03;;;1.82;100.00
6433;BME280;3249;42.690;23.260;2024-03-23T01:19:41;94255.31;;;1.78;100.00
6433;BME280;3249;42.690;23.260;2024-03-23T01:22:08;94248.34;;;1.64;100.00
6433;BME280;3249;42.690;23.260;2024-03-23T01:24:36;94227.81;;;1.35;100.00
6433;BME280;3249;42.690;23.260;2024-03-23T01:27:02;94256.75;;;1.72;100.00
6433;BME280;3249;42.690;23.260;2024-03-23T01:29:32;94256.78;;;2.03;100.00
6433;BME280;3249;42.690;23.260;2024-03-23T01:31:58;94254.41;;;2.01;100.00
6433;BME280;3249;42.690;23.260;2024-03-23T01:34:25;94254.84;;;2.13;100.00
6433;BME280;3249;42.690;23.260;2024-03-23T01:36:51;94247.69;;;2.16;100.00
6433;BME280;3249;42.690;23.260;2024-03-23T01:39:18;94226.44;;;2.09;100.00
6433;BME280;3249;42.690;23.260;2024-03-23T01:41:45;94255.41;;;2.23;100.00
6433;BME280;3249;42.690;23.260;2024-03-23T01:44:11;94250.47;;;2.29;100.00
6433;BME280;3249;42.690;23.260;2024-03-23T01:46:40;94251.06;;;2.39;100.00
6433;BME280;3249;42.690;23.260;2024-03-23T01:49:07;94254.16;;;2.19;100.00
6433;BME280;3249;42.690;23.260;2024-03-23T01:51:35;94254.69;;;2.06;100.00
6433;BME280;3249;42.690;23.260;2024-03-23T01:54:03;94246.06;;;1.85;100.00
6433;BME280;3249;42.690;23.260;2024-03-23T01:56:30;94220.56;;;1.78;100.00
6433;BME280;3249;42.690;23.260;2024-03-23T01:58:58;94253.97;;;1.98;100.00
6433;BME280;3249;42.690;23.260;2024-03-23T02:01:25;94256.56;;;1.82;100.00
6433;BME280;3249;42.690;23.260;2024-03-23T02:03:56;94249.41;;;1.85;100.00
6433;BME280;3249;42.690;23.260;2024-03-23T02:06:24;94249.78;;;1.58;100.00
6433;BME280;3249;42.690;23.260;2024-03-23T02:08:50;94252.50;;;1.49;100.00
6433;BME280;3249;42.690;23.260;2024-03-23T02:11:17;94253.16;;;1.43;100.00
6433;BME280;3249;42.690;23.260;2024-03-23T02:13:43;94259.31;;;1.64;100.00
6433;BME280;3249;42.690;23.260;2024-03-23T02:16:10;94249.66;;;1.52;100.00
6433;BME280;3249;42.690;23.260;2024-03-23T02:18:37;94260.06;;;1.65;100.00
6433;BME280;3249;42.690;23.260;2024-03-23T02:21:06;94252.06;;;1.29;100.00
6433;BME280;3249;42.690;23.260;2024-03-23T02:23:35;94258.25;;;1.35;100.00
6433;BME280;3249;42.690;23.260;2024-03-23T02:26:02;94243.53;;;1.14;100.00
6433;BME280;3249;42.690;23.260;2024-03-23T02:28:29;94259.50;;;1.39;100.00
6433;BME280;3249;42.690;23.260;2024-03-23T02:30:55;94253.81;;;1.21;100.00
6433;BME280;3249;42.690;23.260;2024-03-23T02:33:21;94255.44;;;1.14;100.00
6433;BME280;3249;42.690;23.260;2024-03-23T02:35:48;94261.44;;;1.13;100.00
6433;BME280;3249;42.690;23.260;2024-03-23T02:38:15;94252.72;;;1.15;100.00
6433;BME280;3249;42.690;23.260;2024-03-23T02:40:44;94257.75;;;1.47;100.00
6433;BME280;3249;42.690;23.260;2024-03-23T02:43:11;94257.56;;;1.57;100.00
6433;BME280;3249;42.690;23.260;2024-03-23T02:45:37;94251.13;;;1.30;100.00
6433;BME280;3249;42.690;23.260;2024-03-23T02:48:05;94247.31;;;1.18;100.00
6433;BME280;3249;42.690;23.260;2024-03-23T02:50:31;94252.88;;;1.38;100.00
6433;BME280;3249;42.690;23.260;2024-03-23T02:52:58;94251.44;;;1.35;100.00
6433;BME280;3249;42.690;23.260;2024-03-23T02:55:24;94247.63;;;1.23;100.00
6433;BME280;3249;42.690;23.260;2024-03-23T02:57:53;94244.91;;;1.49;100.00
6433;BME280;3249;42.690;23.260;2024-03-23T03:00:20;94254.28;;;1.48;100.00
6433;BME280;3249;42.690;23.260;2024-03-23T03:02:46;94253.00;;;1.52;100.00
6433;BME280;3249;42.690;23.260;2024-03-23T03:05:13;94244.28;;;1.47;100.00
6433;BME280;3249;42.690;23.260;2024-03-23T03:07:40;94246.19;;;1.37;100.00
6433;BME280;3249;42.690;23.260;2024-03-23T03:10:07;94248.41;;;1.48;100.00
6433;BME280;3249;42.690;23.260;2024-03-23T03:12:33;94252.47;;;1.57;100.00
6433;BME280;3249;42.690;23.260;2024-03-23T03:40:58;94215.06;;;0.64;100.00
6433;BME280;3249;42.690;23.260;2024-03-23T03:43:25;94254.47;;;0.75;100.00
6433;BME280;3249;42.690;23.260;2024-03-23T03:45:52;94248.47;;;0.84;100.00
6433;BME280;3249;42.690;23.260;2024-03-23T03:48:18;94250.69;;;0.95;100.00
6433;BME280;3249;42.690;23.260;2024-03-23T03:50:45;94234.53;;;0.96;100.00
6433;BME280;3249;42.690;23.260;2024-03-23T03:53:11;94250.38;;;1.14;100.00
6433;BME280;3249;42.690;23.260;2024-03-23T03:55:38;94249.56;;;1.13;100.00
6433;BME280;3249;42.690;23.260;2024-03-23T03:58:07;94250.81;;;1.17;100.00
6433;BME280;3249;42.690;23.260;2024-03-23T04:00:34;94222.50;;;1.06;100.00
6433;BME280;3249;42.690;23.260;2024-03-23T04:03:00;94227.56;;;1.06;100.00
6433;BME280;3249;42.690;23.260;2024-03-23T04:05:27;94244.66;;;1.12;100.00
6433;BME280;3249;42.690;23.260;2024-03-23T04:07:53;94252.09;;;1.13;100.00
6433;BME280;3249;42.690;23.260;2024-03-23T04:10:20;94254.63;;;1.05;100.00
6433;BME280;3249;42.690;23.260;2024-03-23T04:12:47;94257.97;;;1.22;100.00
6433;BME280;3249;42.690;23.260;2024-03-23T04:15:17;94255.91;;;1.09;100.00
6433;BME280;3249;42.690;23.260;2024-03-23T04:17:43;94264.63;;;1.07;100.00
6433;BME280;3249;42.690;23.260;2024-03-23T04:20:11;94251.94;;;1.07;100.00
6433;BME280;3249;42.690;23.260;2024-03-23T04:22:37;94255.09;;;1.17;100.00
6433;BME280;3249;42.690;23.260;2024-03-23T04:25:05;94262.69;;;1.25;100.00
6433;BME280;3249;42.690;23.260;2024-03-23T04:27:32;94258.28;;;1.19;100.00
6433;BME280;3249;42.690;23.260;2024-03-23T04:29:59;94258.59;;;1.00;100.00
6433;BME280;3249;42.690;23.260;2024-03-23T04:32:28;94256.69;;;1.26;100.00
6433;BME280;3249;42.690;23.260;2024-03-23T04:34:55;94257.31;;;0.96;100.00
6433;BME280;3249;42.690;23.260;2024-03-23T04:37:22;94241.66;;;0.68;100.00
6433;BME280;3249;42.690;23.260;2024-03-23T04:39:48;94265.09;;;0.94;100.00
6433;BME280;3249;42.690;23.260;2024-03-23T04:42:15;94262.69;;;1.01;100.00
6433;BME280;3249;42.690;23.260;2024-03-23T04:44:41;94265.38;;;0.99;100.00
6433;BME280;3249;42.690;23.260;2024-03-23T04:47:08;94229.31;;;0.97;100.00
6433;BME280;3249;42.690;23.260;2024-03-23T04:49:41;94256.06;;;1.08;100.00
6433;BME280;3249;42.690;23.260;2024-03-23T04:52:07;94217.44;;;0.82;100.00
6433;BME280;3249;42.690;23.260;2024-03-23T04:54:34;94279.16;;;1.05;100.00
6433;BME280;3249;42.690;23.260;2024-03-23T04:57:00;94274.25;;;1.03;100.00
6433;BME280;3249;42.690;23.260;2024-03-23T04:59:27;94275.22;;;1.10;100.00
6433;BME280;3249;42.690;23.260;2024-03-23T05:01:54;94275.34;;;1.33;100.00
6433;BME280;3249;42.690;23.260;2024-03-23T05:04:20;94281.66;;;1.53;100.00
6433;BME280;3249;42.690;23.260;2024-03-23T05:06:49;94278.16;;;1.70;100.00
6433;BME280;3249;42.690;23.260;2024-03-23T05:09:16;94278.75;;;1.80;100.00
6433;BME280;3249;42.690;23.260;2024-03-23T05:11:42;94270.75;;;1.99;100.00
6433;BME280;3249;42.690;23.260;2024-03-23T05:14:09;94271.34;;;2.17;100.00
6433;BME280;3249;42.690;23.260;2024-03-23T05:16:35;94269.28;;;2.12;100.00
6433;BME280;3249;42.690;23.260;2024-03-23T05:19:02;94280.72;;;2.39;100.00
6433;BME280;3249;42.690;23.260;2024-03-23T05:21:28;94275.03;;;2.37;100.00
6433;BME280;3249;42.690;23.260;2024-03-23T05:23:57;94274.16;;;2.52;100.00
6433;BME280;3249;42.690;23.260;2024-03-23T05:26:24;94270.97;;;2.58;100.00
6433;BME280;3249;42.690;23.260;2024-03-23T05:28:50;94272.44;;;2.75;100.00
6433;BME280;3249;42.690;23.260;2024-03-23T05:31:23;94259.88;;;2.74;100.00
6433;BME280;3249;42.690;23.260;2024-03-23T05:33:50;94273.19;;;2.76;100.00
6433;BME280;3249;42.690;23.260;2024-03-23T05:36:17;94280.66;;;3.00;100.00
6433;BME280;3249;42.690;23.260;2024-03-23T05:38:43;94282.16;;;2.94;100.00
6433;BME280;3249;42.690;23.260;2024-03-23T05:41:12;94274.03;;;3.13;100.00
6433;BME280;3249;42.690;23.260;2024-03-23T05:43:39;94281.50;;;3.15;100.00
6433;BME280;3249;42.690;23.260;2024-03-23T05:46:05;94278.56;;;3.26;100.00
6433;BME280;3249;42.690;23.260;2024-03-23T05:48:32;94285.44;;;3.40;100.00
6433;BME280;3249;42.690;23.260;2024-03-23T05:50:58;94283.53;;;3.71;100.00
6433;BME280;3249;42.690;23.260;2024-03-23T05:53:25;94282.22;;;3.60;100.00
6433;BME280;3249;42.690;23.260;2024-03-23T05:56:00;94281.38;;;3.68;100.00
6433;BME280;3249;42.690;23.260;2024-03-23T05:58:30;94245.44;;;3.48;100.00
6433;BME280;3249;42.690;23.260;2024-03-23T06:00:58;94285.56;;;4.04;100.00
6433;BME280;3249;42.690;23.260;2024-03-23T06:03:25;94270.47;;;3.88;100.00
6433;BME280;3249;42.690;23.260;2024-03-23T06:05:52;94284.16;;;4.02;100.00
6433;BME280;3249;42.690;23.260;2024-03-23T06:08:19;94279.41;;;4.28;100.00
6433;BME280;3249;42.690;23.260;2024-03-23T06:10:45;94280.25;;;4.35;100.00
6433;BME280;3249;42.690;23.260;2024-03-23T06:13:12;94287.69;;;4.65;100.00
6433;BME280;3249;42.690;23.260;2024-03-23T06:15:42;94281.47;;;4.53;100.00
6433;BME280;3249;42.690;23.260;2024-03-23T06:18:08;94277.34;;;4.52;100.00
6433;BME280;3249;42.690;23.260;2024-03-23T06:20:35;94250.56;;;4.42;100.00
6433;BME280;3249;42.690;23.260;2024-03-23T06:23:01;94277.50;;;4.86;100.00
6433;BME280;3249;42.690;23.260;2024-03-23T06:25:28;94277.44;;;5.01;98.94
6433;BME280;3249;42.690;23.260;2024-03-23T06:27:55;94285.03;;;5.16;97.06
6433;BME280;3249;42.690;23.260;2024-03-23T06:30:21;94276.94;;;5.33;94.97
6433;BME280;3249;42.690;23.260;2024-03-23T06:32:50;94287.13;;;5.54;91.67
6433;BME280;3249;42.690;23.260;2024-03-23T06:35:16;94288.84;;;5.47;92.26
6433;BME280;3249;42.690;23.260;2024-03-23T06:37:43;94284.34;;;5.49;90.81
6433;BME280;3249;42.690;23.260;2024-03-23T06:40:10;94294.13;;;5.73;88.95
6433;BME280;3249;42.690;23.260;2024-03-23T06:42:37;94290.69;;;5.81;87.77
6433;BME280;3249;42.690;23.260;2024-03-23T06:45:04;94235.22;;;5.75;84.86
6433;BME280;3249;42.690;23.260;2024-03-23T06:47:31;94292.81;;;6.05;81.34
6433;BME280;3249;42.690;23.260;2024-03-23T06:50:01;94291.28;;;5.83;84.37
6433;BME280;3249;42.690;23.260;2024-03-23T06:52:29;94286.84;;;5.70;82.91
6433;BME280;3249;42.690;23.260;2024-03-23T06:54:57;94290.91;;;5.86;81.42
6433;BME280;3249;42.690;23.260;2024-03-23T06:57:24;94246.28;;;5.27;81.57
6433;BME280;3249;42.690;23.260;2024-03-23T06:59:50;94296.47;;;5.96;80.96
6433;BME280;3249;42.690;23.260;2024-03-23T07:02:17;94290.25;;;6.05;81.50
6433;BME280;3249;42.690;23.260;2024-03-23T07:04:44;94287.19;;;5.88;78.52
6433;BME280;3249;42.690;23.260;2024-03-23T07:07:13;94292.03;;;6.11;79.44
6433;BME280;3249;42.690;23.260;2024-03-23T07:09:40;94280.50;;;6.21;79.15
6433;BME280;3249;42.690;23.260;2024-03-23T07:12:07;94279.97;;;6.32;76.19
6433;BME280;3249;42.690;23.260;2024-03-23T07:14:36;94282.88;;;6.70;72.71
6433;BME280;3249;42.690;23.260;2024-03-23T07:17:02;94274.47;;;6.82;71.05
6433;BME280;3249;42.690;23.260;2024-03-23T07:19:29;94274.09;;;6.92;69.16
6433;BME280;3249;42.690;23.260;2024-03-23T07:21:55;94278.44;;;7.04;68.66
6433;BME280;3249;42.690;23.260;2024-03-23T07:24:24;94268.69;;;6.67;71.61
6433;BME280;3249;42.690;23.260;2024-03-23T07:26:52;94266.38;;;6.85;70.71
6433;BME280;3249;42.690;23.260;2024-03-23T07:29:18;94273.34;;;7.17;67.03
6433;BME280;3249;42.690;23.260;2024-03-23T07:31:44;94274.28;;;7.03;68.97
6433;BME280;3249;42.690;23.260;2024-03-23T07:34:11;94269.19;;;7.03;67.32
6433;BME280;3249;42.690;23.260;2024-03-23T07:36:38;94268.41;;;7.22;66.48
6433;BME280;3249;42.690;23.260;2024-03-23T07:39:04;94267.97;;;6.86;68.25
6433;BME280;3249;42.690;23.260;2024-03-23T07:41:33;94256.19;;;6.98;67.82
6433;BME280;3249;42.690;23.260;2024-03-23T07:44:00;94263.91;;;7.50;63.68
6433;BME280;3249;42.690;23.260;2024-03-23T07:46:26;94265.06;;;7.09;66.41
6433;BME280;3249;42.690;23.260;2024-03-23T07:48:53;94268.00;;;6.99;68.38
6433;BME280;3249;42.690;23.260;2024-03-23T07:51:22;94260.94;;;7.27;66.88
6433;BME280;3249;42.690;23.260;2024-03-23T07:53:49;94256.78;;;7.59;65.02
6433;BME280;3249;42.690;23.260;2024-03-23T07:56:16;94259.53;;;7.77;63.68
6433;BME280;3249;42.690;23.260;2024-03-23T07:58:45;94264.84;;;7.95;61.28
6433;BME280;3249;42.690;23.260;2024-03-23T08:01:13;94264.97;;;8.19;60.10
6433;BME280;3249;42.690;23.260;2024-03-23T08:03:41;94252.22;;;7.80;62.12
6433;BME280;3249;42.690;23.260;2024-03-23T08:06:10;94249.47;;;7.95;62.02
6433;BME280;3249;42.690;23.260;2024-03-23T08:08:37;94254.22;;;7.78;63.40
6433;BME280;3249;42.690;23.260;2024-03-23T08:11:03;94253.03;;;7.81;63.48
6433;BME280;3249;42.690;23.260;2024-03-23T08:13:31;94252.81;;;7.95;61.92
6433;BME280;3249;42.690;23.260;2024-03-23T08:16:00;94255.16;;;8.23;60.34
6433;BME280;3249;42.690;23.260;2024-03-23T08:18:27;94251.16;;;8.33;60.95
6433;BME280;3249;42.690;23.260;2024-03-23T08:20:57;94245.44;;;8.31;62.06
6433;BME280;3249;42.690;23.260;2024-03-23T08:23:27;94255.78;;;8.62;60.02
6433;BME280;3249;42.690;23.260;2024-03-23T08:25:57;94256.25;;;8.84;56.69
6433;BME280;3249;42.690;23.260;2024-03-23T08:28:24;94251.41;;;9.07;55.37
6433;BME280;3249;42.690;23.260;2024-03-23T08:30:51;94251.09;;;8.90;55.42
6433;BME280;3249;42.690;23.260;2024-03-23T08:33:20;94249.16;;;8.79;56.83
6433;BME280;3249;42.690;23.260;2024-03-23T08:35:53;94244.25;;;8.78;57.13
6433;BME280;3249;42.690;23.260;2024-03-23T08:38:20;94239.09;;;8.84;56.21
6433;BME280;3249;42.690;23.260;2024-03-23T08:40:47;94237.19;;;9.04;55.20
6433;BME280;3249;42.690;23.260;2024-03-23T08:43:13;94243.69;;;9.31;54.26
6433;BME280;3249;42.690;23.260;2024-03-23T08:45:40;94234.91;;;9.45;53.34
6433;BME280;3249;42.690;23.260;2024-03-23T08:48:07;94220.78;;;9.54;52.29
6433;BME280;3249;42.690;23.260;2024-03-23T08:50:36;94233.00;;;9.84;51.48
6433;BME280;3249;42.690;23.260;2024-03-23T08:53:03;94227.63;;;10.10;50.67
6433;BME280;3249;42.690;23.260;2024-03-23T08:55:29;94227.25;;;10.24;49.25
6433;BME280;3249;42.690;23.260;2024-03-23T08:57:56;94221.19;;;10.37;49.10
6433;BME280;3249;42.690;23.260;2024-03-23T09:00:22;94226.97;;;10.50;48.50
6433;BME280;3249;42.690;23.260;2024-03-23T09:02:50;94225.16;;;10.51;48.09
6433;BME280;3249;42.690;23.260;2024-03-23T09:05:22;94208.97;;;10.80;46.96
6433;BME280;3249;42.690;23.260;2024-03-23T09:07:56;94214.50;;;10.65;47.57
6433;BME280;3249;42.690;23.260;2024-03-23T09:10:23;94204.25;;;10.77;46.69
6433;BME280;3249;42.690;23.260;2024-03-23T09:12:49;94203.31;;;11.01;46.02
6433;BME280;3249;42.690;23.260;2024-03-23T09:15:16;94192.81;;;11.14;46.64
6433;BME280;3249;42.690;23.260;2024-03-23T09:17:42;94189.94;;;11.33;46.19
6433;BME280;3249;42.690;23.260;2024-03-23T09:20:10;94194.75;;;11.30;45.95
6433;BME280;3249;42.690;23.260;2024-03-23T09:22:37;94191.56;;;10.93;45.19
6433;BME280;3249;42.690;23.260;2024-03-23T09:25:07;94189.00;;;10.75;45.32
6433;BME280;3249;42.690;23.260;2024-03-23T09:27:34;94186.63;;;10.92;45.59
6433;BME280;3249;42.690;23.260;2024-03-23T09:30:00;94181.97;;;11.12;45.00
6433;BME280;3249;42.690;23.260;2024-03-23T09:32:27;94172.22;;;11.48;44.22
6433;BME280;3249;42.690;23.260;2024-03-23T09:34:53;94175.97;;;11.64;43.75
6433;BME280;3249;42.690;23.260;2024-03-23T09:37:20;94172.50;;;11.70;42.56
6433;BME280;3249;42.690;23.260;2024-03-23T09:39:46;94170.16;;;11.80;42.03
6433;BME280;3249;42.690;23.260;2024-03-23T09:42:16;94163.63;;;11.89;42.03
6433;BME280;3249;42.690;23.260;2024-03-23T09:44:44;94159.59;;;12.04;42.00
6433;BME280;3249;42.690;23.260;2024-03-23T09:47:10;94158.38;;;12.23;41.05
6433;BME280;3249;42.690;23.260;2024-03-23T09:49:38;94161.19;;;12.33;40.87
6433;BME280;3249;42.690;23.260;2024-03-23T09:52:05;94155.94;;;12.17;40.99
6433;BME280;3249;42.690;23.260;2024-03-23T09:54:32;94150.00;;;12.16;41.43
6433;BME280;3249;42.690;23.260;2024-03-23T09:56:58;94140.31;;;11.84;41.65
6433;BME280;3249;42.690;23.260;2024-03-23T09:59:27;94137.16;;;11.82;41.89
6433;BME280;3249;42.690;23.260;2024-03-23T10:01:55;94133.81;;;11.81;41.47
6433;BME280;3249;42.690;23.260;2024-03-23T10:04:37;94134.31;;;12.18;40.57
6433;BME280;3249;42.690;23.260;2024-03-23T10:07:13;94134.06;;;12.19;39.71
6433;BME280;3249;42.690;23.260;2024-03-23T10:09:40;94125.44;;;12.14;39.76
6433;BME280;3249;42.690;23.260;2024-03-23T10:12:10;94081.97;;;11.94;39.98
6433;BME280;3249;42.690;23.260;2024-03-23T10:14:41;94118.72;;;12.13;39.79
6433;BME280;3249;42.690;23.260;2024-03-23T10:17:15;94119.38;;;12.20;39.51
6433;BME280;3249;42.690;23.260;2024-03-23T10:19:43;94114.28;;;12.36;39.07
6433;BME280;3249;42.690;23.260;2024-03-23T10:22:14;94115.22;;;12.47;38.44
6433;BME280;3249;42.690;23.260;2024-03-23T10:24:41;94094.34;;;12.48;38.38
6433;BME280;3249;42.690;23.260;2024-03-23T10:27:08;94096.94;;;12.65;38.82
6433;BME280;3249;42.690;23.260;2024-03-23T10:29:34;94101.19;;;12.71;39.01
6433;BME280;3249;42.690;23.260;2024-03-23T10:32:11;94095.91;;;12.94;38.04
6433;BME280;3249;42.690;23.260;2024-03-23T10:34:38;94094.44;;;12.98;37.74
6433;BME280;3249;42.690;23.260;2024-03-23T10:37:05;94091.84;;;13.14;36.91
6433;BME280;3249;42.690;23.260;2024-03-23T10:39:33;94087.06;;;13.39;36.84
6433;BME280;3249;42.690;23.260;2024-03-23T10:42:02;94074.06;;;13.56;36.85
6433;BME280;3249;42.690;23.260;2024-03-23T10:44:29;94040.66;;;13.33;35.74
6433;BME280;3249;42.690;23.260;2024-03-23T10:46:56;94070.03;;;13.43;36.55
6433;BME280;3249;42.690;23.260;2024-03-23T10:49:26;94043.34;;;13.38;36.30
6433;BME280;3249;42.690;23.260;2024-03-23T10:51:53;94063.47;;;13.36;36.12
6433;BME280;3249;42.690;23.260;2024-03-23T10:54:20;94053.00;;;13.26;36.05
6433;BME280;3249;42.690;23.260;2024-03-23T10:56:48;94054.00;;;13.63;35.58
6433;BME280;3249;42.690;23.260;2024-03-23T10:59:17;93995.31;;;13.42;35.50
6433;BME280;3249;42.690;23.260;2024-03-23T11:01:55;94035.22;;;13.94;35.17
6433;BME280;3249;42.690;23.260;2024-03-23T11:04:34;94025.84;;;13.88;35.19
6433;BME280;3249;42.690;23.260;2024-03-23T11:07:02;94015.53;;;14.15;34.31
6433;BME280;3249;42.690;23.260;2024-03-23T11:09:44;94013.31;;;14.23;33.60
6433;BME280;3249;42.690;23.260;2024-03-23T11:12:25;94009.25;;;14.32;33.59
6433;BME280;3249;42.690;23.260;2024-03-23T11:14:54;94001.16;;;14.24;33.04
6433;BME280;3249;42.690;23.260;2024-03-23T11:17:22;94003.91;;;14.17;33.16
6433;BME280;3249;42.690;23.260;2024-03-23T11:19:58;93970.00;;;13.92;32.69
6433;BME280;3249;42.690;23.260;2024-03-23T11:22:42;94001.78;;;14.36;32.24
6433;BME280;3249;42.690;23.260;2024-03-23T11:25:19;93997.38;;;14.36;31.81
6433;BME280;3249;42.690;23.260;2024-03-23T11:27:47;93997.38;;;14.36;32.02
6433;BME280;3249;42.690;23.260;2024-03-23T11:30:19;93939.13;;;14.12;31.52
6433;BME280;3249;42.690;23.260;2024-03-23T11:32:47;93983.94;;;14.39;31.71
6433;BME280;3249;42.690;23.260;2024-03-23T11:35:31;93980.31;;;14.40;31.61
6433;BME280;3249;42.690;23.260;2024-03-23T11:38:06;93975.19;;;14.45;31.51
6433;BME280;3249;42.690;23.260;2024-03-23T11:40:33;93974.97;;;14.52;31.81
6433;BME280;3249;42.690;23.260;2024-03-23T11:43:00;93967.63;;;14.70;30.97
6433;BME280;3249;42.690;23.260;2024-03-23T11:45:28;93966.72;;;14.91;31.21
6433;BME280;3249;42.690;23.260;2024-03-23T11:48:08;93958.78;;;15.08;30.44
6433;BME280;3249;42.690;23.260;2024-03-23T11:50:40;93957.00;;;15.13;30.09
6433;BME280;3249;42.690;23.260;2024-03-23T11:53:17;93951.81;;;15.13;29.73
6433;BME280;3249;42.690;23.260;2024-03-23T11:55:46;93947.50;;;14.87;29.53
6433;BME280;3249;42.690;23.260;2024-03-23T11:58:13;93940.75;;;14.81;30.36
6433;BME280;3249;42.690;23.260;2024-03-23T12:00:40;93933.09;;;15.01;29.57
6433;BME280;3249;42.690;23.260;2024-03-23T12:03:07;93929.94;;;14.99;27.85
6433;BME280;3249;42.690;23.260;2024-03-23T12:05:34;93931.41;;;15.27;26.11
6433;BME280;3249;42.690;23.260;2024-03-23T12:08:21;93927.78;;;15.28;23.85
6433;BME280;3249;42.690;23.260;2024-03-23T12:10:49;93914.44;;;15.04;24.11
6433;BME280;3249;42.690;23.260;2024-03-23T12:13:20;93905.16;;;15.18;24.43
6433;BME280;3249;42.690;23.260;2024-03-23T12:15:49;93890.97;;;15.31;23.85
6433;BME280;3249;42.690;23.260;2024-03-23T12:18:15;93919.31;;;15.42;22.85
6433;BME280;3249;42.690;23.260;2024-03-23T12:20:42;93918.25;;;15.43;22.86
6433;BME280;3249;42.690;23.260;2024-03-23T12:23:10;93887.03;;;15.18;22.37
6433;BME280;3249;42.690;23.260;2024-03-23T12:25:41;93904.84;;;15.10;22.47
6433;BME280;3249;42.690;23.260;2024-03-23T12:28:07;93879.22;;;15.08;22.63
6433;BME280;3249;42.690;23.260;2024-03-23T12:30:35;93909.97;;;15.46;22.07
6433;BME280;3249;42.690;23.260;2024-03-23T12:33:02;93901.44;;;15.51;21.47
6433;BME280;3249;42.690;23.260;2024-03-23T12:35:29;93895.22;;;15.52;21.47
6433;BME280;3249;42.690;23.260;2024-03-23T12:37:56;93896.25;;;15.61;21.88
6433;BME280;3249;42.690;23.260;2024-03-23T12:40:22;93888.72;;;15.54;21.37
6433;BME280;3249;42.690;23.260;2024-03-23T12:42:51;93887.22;;;15.68;21.83
6433;BME280;3249;42.690;23.260;2024-03-23T12:45:18;93888.28;;;15.72;20.81
6433;BME280;3249;42.690;23.260;2024-03-23T12:47:44;93883.31;;;15.71;21.65
6433;BME280;3249;42.690;23.260;2024-03-23T12:50:11;93888.81;;;15.84;20.62
6433;BME280;3249;42.690;23.260;2024-03-23T12:52:37;93881.03;;;15.84;20.82
6433;BME280;3249;42.690;23.260;2024-03-23T12:55:04;93870.63;;;15.84;21.43
6433;BME280;3249;42.690;23.260;2024-03-23T12:57:34;93870.13;;;15.97;21.07
6433;BME280;3249;42.690;23.260;2024-03-23T13:00:04;93867.03;;;16.05;21.22
6433;BME280;3249;42.690;23.260;2024-03-23T13:02:30;93857.69;;;16.04;21.30
6433;BME280;3249;42.690;23.260;2024-03-23T13:04:57;93851.44;;;16.10;21.99
6433;BME280;3249;42.690;23.260;2024-03-23T13:07:24;93850.91;;;16.28;21.34
6433;BME280;3249;42.690;23.260;2024-03-23T13:09:51;93844.44;;;16.26;20.99
6433;BME280;3249;42.690;23.260;2024-03-23T13:12:18;93850.91;;;16.28;20.72
6433;BME280;3249;42.690;23.260;2024-03-23T13:14:44;93813.78;;;15.83;20.75
6433;BME280;3249;42.690;23.260;2024-03-23T13:17:14;93811.44;;;15.86;20.78
6433;BME280;3249;42.690;23.260;2024-03-23T13:19:40;93807.28;;;15.90;20.86
6433;BME280;3249;42.690;23.260;2024-03-23T13:22:07;93840.81;;;16.02;20.24
6433;BME280;3249;42.690;23.260;2024-03-23T13:24:34;93789.91;;;15.86;21.21
6433;BME280;3249;42.690;23.260;2024-03-23T13:27:00;93826.78;;;16.18;20.95
6433;BME280;3249;42.690;23.260;2024-03-23T13:29:27;93826.50;;;16.14;21.12
6433;BME280;3249;42.690;23.260;2024-03-23T13:31:54;93820.81;;;16.12;21.21
6433;BME280;3249;42.690;23.260;2024-03-23T13:34:23;93820.03;;;16.02;21.48
6433;BME280;3249;42.690;23.260;2024-03-23T13:36:49;93815.09;;;15.80;21.53
6433;BME280;3249;42.690;23.260;2024-03-23T13:39:16;93768.34;;;15.75;21.92
6433;BME280;3249;42.690;23.260;2024-03-23T13:41:43;93806.78;;;16.13;22.02
6433;BME280;3249;42.690;23.260;2024-03-23T13:44:11;93802.09;;;16.20;22.74
6433;BME280;3249;42.690;23.260;2024-03-23T13:46:38;93798.72;;;16.20;22.24
6433;BME280;3249;42.690;23.260;2024-03-23T13:49:04;93741.13;;;15.98;22.07
6433;BME280;3249;42.690;23.260;2024-03-23T13:51:34;93791.69;;;16.40;22.16
6433;BME280;3249;42.690;23.260;2024-03-23T13:54:00;93768.84;;;16.17;22.19
6433;BME280;3249;42.690;23.260;2024-03-23T13:56:27;93790.66;;;16.36;22.39
6433;BME280;3249;42.690;23.260;2024-03-23T13:58:55;93791.69;;;16.30;21.91
6433;BME280;3249;42.690;23.260;2024-03-23T14:01:22;93795.59;;;16.23;21.37
6433;BME280;3249;42.690;23.260;2024-03-23T14:03:48;93787.81;;;16.18;22.37
6433;BME280;3249;42.690;23.260;2024-03-23T14:06:15;93774.03;;;16.27;22.50
6433;BME280;3249;42.690;23.260;2024-03-23T14:08:44;93778.97;;;16.34;22.82
6433;BME280;3249;42.690;23.260;2024-03-23T14:11:11;93767.28;;;16.41;22.24
6433;BME280;3249;42.690;23.260;2024-03-23T14:13:37;93758.94;;;16.34;22.78
6433;BME280;3249;42.690;23.260;2024-03-23T14:16:05;93772.19;;;16.38;22.68
6433;BME280;3249;42.690;23.260;2024-03-23T14:18:31;93765.97;;;16.39;22.89
6433;BME280;3249;42.690;23.260;2024-03-23T14:20:59;93764.66;;;16.36;22.99
6433;BME280;3249;42.690;23.260;2024-03-23T14:23:26;93765.16;;;16.38;22.47
6433;BME280;3249;42.690;23.260;2024-03-23T14:25:56;93755.81;;;16.37;22.91
6433;BME280;3249;42.690;23.260;2024-03-23T14:28:23;93702.41;;;16.06;23.95
6433;BME280;3249;42.690;23.260;2024-03-23T14:30:49;93752.19;;;16.48;23.17
6433;BME280;3249;42.690;23.260;2024-03-23T14:33:16;93752.97;;;16.39;22.95
6433;BME280;3249;42.690;23.260;2024-03-23T14:35:42;93747.78;;;16.39;22.82